MV Causeway Supplier — ZR2426 — position and weather

sailwx.info

Track history (hours):
 
Tides and Currents Weather Stations Pressure Air Temp Water Temp Dewpoint Dewpoint Depression Visibility Wind Speed Wind Dir Waves Ship Positions

MV Causeway Supplier

Last reported at 2016-Nov-25 13:04 UTC. Time now 2016-Dec-03 00:15 UTC.
Position S 29°24' E 031°22'.

Length 22 m; draft 2.7 m.

Type: . MMSI: 601041200.

Date/timePositionNaut miles runAvg speedWind from/ knotsBaromVisibWave heightAir tempDewpointWater temp
2016-Nov-25 13:04S 29°24' E 031°22'4 8.1
2016-Nov-25 12:33S 29°27' E 031°19'8 8.2
2016-Nov-25 11:33S 29°34' E 031°13'8 8.3
2016-Nov-25 10:33S 29°42' E 031°09'8 8.4
2016-Nov-25 09:34S 29°49' E 031°05'  
2016-Nov-22 14:33S 29°54' E 031°00'2 0.6
2016-Nov-22 10:33S 29°52' E 031°02'7 7.4
2016-Nov-22 09:33S 29°48' E 031°09'3 2.9
2016-Nov-22 08:33S 29°46' E 031°11'0 0.0
2016-Nov-22 07:33S 29°46' E 031°11'6 2.9
2016-Nov-22 05:33S 29°50' E 031°06'6 6.1
2016-Nov-22 04:33S 29°53' E 031°00'1 0.9
2016-Nov-22 03:33S 29°54' E 031°00'12 3.1
2016-Nov-21 23:33S 29°46' E 031°11'0 0.0
2016-Nov-21 21:33S 29°46' E 031°11'12 3.1
2016-Nov-21 17:33S 29°54' E 031°00'0 0.0
2016-Nov-21 13:16S 29°54' E 031°00'2 2.8
2016-Nov-21 12:32S 29°52' E 031°01'4 4.0
2016-Nov-21 11:33S 29°53' E 031°05'2 2.0
2016-Nov-21 10:32S 29°54' E 031°07'2 1.0
2016-Nov-21 08:33S 29°53' E 031°09'6 5.6
2016-Nov-21 07:32S 29°52' E 031°02'1 0.7
2016-Nov-21 05:33S 29°52' E 031°01'2 2.0
2016-Nov-21 04:32S 29°54' E 031°00'1 0.0
2016-Nov-19 11:14S 29°53' E 031°00'4 2.6
2016-Nov-19 09:33S 29°51' E 031°05'7 3.7
2016-Nov-19 07:33S 29°48' E 031°12'0 0.0
2016-Nov-19 05:33S 29°48' E 031°12'4 3.7
2016-Nov-19 04:33S 29°49' E 031°09'7 7.3
2016-Nov-19 03:33S 29°52' E 031°01'0 0.1
2016-Nov-19 02:33S 29°52' E 031°01'2 0.1
2016-Nov-17 12:33S 29°52' E 031°03'6 6.1
2016-Nov-17 11:33S 29°51' E 031°10'8 2.7
2016-Nov-17 08:33S 29°52' E 031°01'9 4.6
2016-Nov-17 06:34S 29°49' E 031°11'10 2.6
2016-Nov-17 02:33S 29°54' E 031°00'0 0.0
2016-Nov-16 08:33S 29°54' E 031°00'  
Track history (hours):
 
Tides and Currents Weather Stations Pressure Air Temp Water Temp Dewpoint Dewpoint Depression Visibility Wind Speed Wind Dir Waves Ship Positions

MV Causeway Supplier

Last reported at 2016-Nov-25 13:04 UTC. Time now 2016-Dec-03 00:15 UTC.
Position S 29°24' E 031°22'.

Length 22 m; draft 2.7 m.

Type: . MMSI: 601041200.

Date/timePositionNaut miles runAvg speedWind from/ knotsBaromVisibWave heightAir tempDewpointWater temp
2016-Nov-25 13:04S 29°24' E 031°22'4 8.1
2016-Nov-25 12:33S 29°27' E 031°19'8 8.2
2016-Nov-25 11:33S 29°34' E 031°13'8 8.3
2016-Nov-25 10:33S 29°42' E 031°09'8 8.4
2016-Nov-25 09:34S 29°49' E 031°05'  
2016-Nov-22 14:33S 29°54' E 031°00'2 0.6
2016-Nov-22 10:33S 29°52' E 031°02'7 7.4
2016-Nov-22 09:33S 29°48' E 031°09'3 2.9
2016-Nov-22 08:33S 29°46' E 031°11'0 0.0
2016-Nov-22 07:33S 29°46' E 031°11'6 2.9
2016-Nov-22 05:33S 29°50' E 031°06'6 6.1
2016-Nov-22 04:33S 29°53' E 031°00'1 0.9
2016-Nov-22 03:33S 29°54' E 031°00'12 3.1
2016-Nov-21 23:33S 29°46' E 031°11'0 0.0
2016-Nov-21 21:33S 29°46' E 031°11'12 3.1
2016-Nov-21 17:33S 29°54' E 031°00'0 0.0
2016-Nov-21 13:16S 29°54' E 031°00'2 2.8
2016-Nov-21 12:32S 29°52' E 031°01'4 4.0
2016-Nov-21 11:33S 29°53' E 031°05'2 2.0
2016-Nov-21 10:32S 29°54' E 031°07'2 1.0
2016-Nov-21 08:33S 29°53' E 031°09'6 5.6
2016-Nov-21 07:32S 29°52' E 031°02'1 0.7
2016-Nov-21 05:33S 29°52' E 031°01'2 2.0
2016-Nov-21 04:32S 29°54' E 031°00'1 0.0
2016-Nov-19 11:14S 29°53' E 031°00'4 2.6
2016-Nov-19 09:33S 29°51' E 031°05'7 3.7
2016-Nov-19 07:33S 29°48' E 031°12'0 0.0
2016-Nov-19 05:33S 29°48' E 031°12'4 3.7
2016-Nov-19 04:33S 29°49' E 031°09'7 7.3
2016-Nov-19 03:33S 29°52' E 031°01'0 0.1
2016-Nov-19 02:33S 29°52' E 031°01'2 0.1
2016-Nov-17 12:33S 29°52' E 031°03'6 6.1
2016-Nov-17 11:33S 29°51' E 031°10'8 2.7
2016-Nov-17 08:33S 29°52' E 031°01'9 4.6
2016-Nov-17 06:34S 29°49' E 031°11'10 2.6
2016-Nov-17 02:33S 29°54' E 031°00'0 0.0
2016-Nov-16 08:33S 29°54' E 031°00'  

Dump ship's entire track history